createdAt,value
2019-01-29T00:01:48.206Z,92.37
2019-01-29T00:04:18.692Z,92.18
2019-01-29T00:06:49.218Z,92.15
2019-01-29T00:09:19.755Z,92.45
2019-01-29T00:11:50.306Z,92.43
2019-01-29T00:14:20.774Z,92.51
2019-01-29T00:16:51.294Z,92.56
2019-01-29T00:19:21.832Z,92.70
2019-01-29T00:21:52.303Z,92.85
2019-01-29T00:24:22.844Z,92.83
2019-01-29T00:26:53.386Z,93.02
2019-01-29T00:29:23.905Z,93.13
2019-01-29T00:31:54.468Z,93.19
2019-01-29T00:34:25.157Z,93.42
2019-01-29T00:36:56.025Z,93.49
2019-01-29T00:39:26.607Z,93.54
2019-01-29T00:41:57.133Z,93.52
2019-01-29T00:44:27.714Z,93.57
2019-01-29T00:46:58.289Z,93.63
2019-01-29T00:49:28.792Z,94.00
2019-01-29T00:51:59.358Z,93.95
2019-01-29T00:54:29.911Z,93.99
2019-01-29T00:57:00.452Z,94.24
2019-01-29T00:59:30.956Z,94.49
2019-01-29T01:02:01.461Z,94.56
2019-01-29T01:04:32.069Z,94.52
2019-01-29T01:07:02.584Z,94.53
2019-01-29T01:09:33.131Z,94.61
2019-01-29T01:12:03.651Z,94.69
2019-01-29T01:14:35.130Z,94.57
2019-01-29T01:17:05.673Z,94.80
2019-01-29T01:19:36.227Z,95.03
2019-01-29T01:22:06.809Z,95.00
2019-01-29T01:24:37.421Z,95.04
2019-01-29T01:27:08.106Z,95.03
2019-01-29T01:29:38.717Z,95.02
2019-01-29T01:32:09.283Z,94.92
2019-01-29T01:34:39.832Z,95.04
2019-01-29T01:37:10.457Z,95.43
2019-01-29T01:39:41.037Z,95.44
2019-01-29T01:42:11.631Z,95.49
2019-01-29T01:44:42.099Z,95.53
2019-01-29T01:47:12.584Z,95.52
2019-01-29T01:49:43.062Z,95.48
2019-01-29T01:52:13.582Z,95.38
2019-01-29T01:54:44.109Z,95.16
2019-01-29T01:57:14.582Z,95.22
2019-01-29T01:59:45.147Z,95.23
2019-01-29T02:02:15.672Z,95.29
2019-01-29T02:04:46.156Z,95.52
2019-01-29T02:07:16.660Z,95.72
2019-01-29T02:09:47.209Z,95.87
2019-01-29T02:12:17.816Z,95.95
2019-01-29T02:14:48.363Z,96.01
2019-01-29T02:17:18.933Z,96.02
2019-01-29T02:19:49.432Z,96.04
2019-01-29T02:22:19.927Z,96.07
2019-01-29T02:24:50.456Z,96.10
2019-01-29T02:27:21.027Z,96.21
2019-01-29T02:29:51.623Z,96.29
2019-01-29T02:32:22.183Z,96.21
2019-01-29T02:34:52.662Z,96.20
2019-01-29T02:37:23.181Z,96.23
2019-01-29T02:39:53.756Z,96.15
2019-01-29T02:42:24.334Z,96.21
2019-01-29T02:44:54.923Z,96.22
2019-01-29T02:47:25.481Z,96.31
2019-01-29T02:49:55.995Z,96.29
2019-01-29T02:52:26.541Z,96.25
2019-01-29T02:54:57.148Z,96.12
2019-01-29T02:57:27.677Z,96.20
2019-01-29T02:59:58.170Z,96.29
2019-01-29T03:02:28.697Z,96.37
2019-01-29T03:04:59.193Z,96.44
2019-01-29T03:07:29.734Z,96.40
2019-01-29T03:10:00.440Z,96.19
2019-01-29T03:12:30.871Z,96.13
2019-01-29T03:15:01.341Z,96.07
2019-01-29T03:17:31.854Z,96.21
2019-01-29T03:20:02.350Z,96.22
2019-01-29T03:22:32.855Z,96.16
2019-01-29T03:25:03.383Z,96.08
2019-01-29T03:27:33.898Z,96.09
2019-01-29T03:30:04.824Z,96.08
2019-01-29T03:32:35.360Z,96.12
2019-01-29T03:35:06.562Z,96.04
2019-01-29T03:37:37.100Z,96.08
2019-01-29T03:40:10.138Z,96.06
2019-01-29T05:29:26.876Z,96.59
2019-01-29T05:31:57.522Z,96.66
2019-01-29T05:34:28.060Z,96.73
2019-01-29T05:36:58.765Z,96.77
2019-01-29T05:39:29.342Z,96.86
2019-01-29T05:41:59.940Z,96.91
2019-01-29T05:44:30.581Z,96.98
2019-01-29T06:03:09.100Z,96.94
2019-01-29T06:05:40.090Z,96.84
2019-01-29T06:08:10.769Z,96.85
2019-01-29T06:10:42.225Z,96.91
2019-01-29T06:13:12.880Z,96.90
2019-01-29T06:15:43.539Z,96.93
2019-01-29T06:18:14.263Z,96.99
2019-01-29T06:20:45.111Z,97.09
2019-01-29T06:23:15.993Z,97.15
2019-01-29T06:26:20.568Z,97.23
2019-01-29T06:28:44.850Z,97.27
2019-01-29T06:31:15.740Z,97.29
2019-01-29T06:33:46.440Z,97.30
2019-01-29T06:36:17.108Z,97.24
2019-01-29T06:38:47.820Z,97.22
2019-01-29T06:41:18.435Z,97.27
2019-01-29T06:43:49.238Z,97.33
2019-01-29T06:46:20.034Z,97.37
2019-01-29T06:48:50.697Z,97.45
2019-01-29T06:51:21.433Z,97.40
2019-01-29T06:53:52.192Z,97.38
2019-01-29T06:56:23.080Z,97.38
2019-01-29T06:58:53.749Z,97.35
2019-01-29T07:01:24.467Z,97.42
2019-01-29T07:03:55.228Z,97.34
2019-01-29T07:06:26.035Z,97.32
2019-01-29T07:08:56.922Z,97.28
2019-01-29T07:11:27.592Z,97.32
2019-01-29T07:13:58.565Z,97.26
2019-01-29T07:16:54.989Z,97.15
2019-01-29T07:19:46.692Z,97.08
2019-01-29T07:22:17.386Z,96.99
2019-01-29T07:24:48.075Z,97.02
2019-01-29T07:27:18.821Z,97.02
2019-01-29T07:29:49.685Z,96.99
2019-01-29T07:32:20.338Z,97.04
2019-01-29T07:34:51.215Z,97.14
2019-01-29T07:37:22.376Z,97.17
2019-01-29T07:39:53.089Z,97.15
2019-01-29T07:42:23.897Z,97.09
2019-01-29T07:44:54.492Z,96.98
2019-01-29T07:47:25.122Z,96.96
2019-01-29T07:49:55.756Z,96.98
2019-01-29T07:52:26.348Z,97.06
2019-01-29T07:54:56.925Z,97.18
2019-01-29T07:57:27.472Z,97.20
2019-01-29T07:59:58.032Z,97.23
2019-01-29T08:02:28.584Z,97.23
2019-01-29T08:04:59.159Z,97.26
2019-01-29T08:07:29.779Z,97.23
2019-01-29T08:10:00.397Z,97.27
2019-01-29T08:12:31.242Z,97.22
2019-01-29T08:15:01.928Z,97.08
2019-01-29T08:17:32.497Z,97.07
2019-01-29T08:20:03.342Z,97.03
2019-01-29T08:22:34.066Z,97.06
2019-01-29T08:25:07.519Z,96.99
2019-01-29T08:27:38.182Z,96.94
2019-01-29T08:30:09.359Z,96.86
2019-01-29T08:32:39.912Z,96.88
2019-01-29T08:35:11.018Z,96.85
2019-01-29T08:37:46.059Z,96.78
2019-01-29T08:40:17.184Z,96.63
2019-01-29T08:42:47.739Z,96.63
2019-01-29T08:45:18.552Z,96.68
2019-01-29T08:47:49.422Z,96.67
2019-01-29T08:50:22.467Z,96.68
2019-01-29T08:52:53.283Z,96.78
2019-01-29T08:55:24.071Z,96.71
2019-01-29T08:57:54.755Z,96.66
2019-01-29T09:00:25.341Z,96.63
2019-01-29T09:02:55.892Z,96.64
2019-01-29T09:05:26.466Z,96.40
2019-01-29T09:07:57.044Z,96.15
2019-01-29T09:10:27.583Z,95.91
2019-01-29T09:12:58.165Z,95.96
2019-01-29T09:15:28.760Z,96.10
2019-01-29T09:17:59.340Z,96.32
2019-01-29T09:20:29.867Z,95.98
2019-01-29T09:23:00.472Z,95.92
2019-01-29T09:25:31.031Z,96.11
2019-01-29T09:28:01.615Z,96.16
2019-01-29T09:30:32.194Z,96.38
2019-01-29T09:33:02.724Z,96.49
2019-01-29T09:35:33.244Z,96.41
2019-01-29T09:38:04.038Z,96.25
2019-01-29T09:40:34.537Z,96.24
2019-01-29T09:43:05.343Z,96.12
2019-01-29T09:45:35.832Z,96.20
2019-01-29T09:48:06.403Z,96.00
2019-01-29T09:50:36.879Z,96.05
2019-01-29T09:53:07.388Z,96.06
2019-01-29T09:55:37.883Z,96.06
2019-01-29T09:58:08.349Z,96.13
2019-01-29T10:00:40.000Z,96.10
2019-01-29T10:03:10.438Z,96.16
2019-01-29T10:05:41.769Z,95.77
2019-01-29T10:08:12.676Z,95.79
2019-01-29T10:10:43.136Z,95.74
2019-01-29T10:13:13.680Z,95.59
2019-01-29T10:15:44.246Z,95.53
2019-01-29T10:18:14.789Z,95.35
2019-01-29T10:20:45.265Z,95.43
2019-01-29T10:23:15.791Z,95.32
2019-01-29T10:25:46.282Z,95.19
2019-01-29T10:28:16.748Z,94.93
2019-01-29T10:30:47.287Z,94.87
2019-01-29T10:33:17.709Z,94.38
2019-01-29T10:35:48.196Z,94.31
2019-01-29T10:38:18.704Z,94.67
2019-01-29T10:40:49.178Z,94.07
2019-01-29T10:43:19.688Z,93.78
2019-01-29T10:45:50.211Z,94.18
2019-01-29T10:48:20.678Z,93.81
2019-01-29T10:50:51.254Z,93.26
2019-01-29T10:53:21.795Z,93.42
2019-01-29T10:55:52.260Z,93.50
2019-01-29T10:58:22.729Z,93.41
2019-01-29T11:00:53.235Z,92.77
2019-01-29T11:03:23.745Z,92.66
2019-01-29T11:05:54.299Z,92.58
2019-01-29T11:08:24.808Z,91.85
2019-01-29T11:10:55.288Z,91.40
2019-01-29T11:13:25.751Z,91.11
2019-01-29T11:15:56.272Z,90.47
2019-01-29T11:18:26.780Z,89.67
2019-01-29T11:20:57.267Z,89.48
2019-01-29T11:23:27.794Z,89.61
2019-01-29T11:25:58.305Z,89.57
2019-01-29T11:28:28.769Z,89.53
2019-01-29T11:30:59.272Z,88.81
2019-01-29T11:33:29.785Z,89.01
2019-01-29T11:36:00.296Z,88.90
2019-01-29T11:38:30.822Z,89.18
2019-01-29T11:41:01.328Z,89.02
2019-01-29T11:43:31.889Z,88.38
2019-01-29T11:46:02.608Z,88.45
2019-01-29T11:48:33.470Z,87.98
2019-01-29T11:51:03.967Z,88.26
2019-01-29T11:53:34.802Z,88.03
2019-01-29T11:56:05.632Z,88.31
2019-01-29T11:58:36.127Z,88.39
2019-01-29T12:01:08.790Z,87.33
2019-01-29T12:03:39.301Z,88.43
2019-01-29T12:06:09.879Z,88.23
2019-01-29T12:08:40.406Z,88.35
2019-01-29T12:11:10.927Z,88.45
2019-01-29T12:13:41.412Z,88.68
2019-01-29T12:16:12.091Z,87.52
2019-01-29T12:18:42.626Z,87.66
2019-01-29T12:21:13.104Z,87.01
2019-01-29T12:23:43.633Z,86.12
2019-01-29T12:26:14.177Z,86.49
2019-01-29T12:28:44.682Z,86.80
2019-01-29T12:31:16.146Z,87.17
2019-01-29T12:33:46.788Z,87.40
2019-01-29T12:36:17.362Z,86.88
2019-01-29T12:38:47.922Z,87.87
2019-01-29T12:41:18.417Z,87.64
2019-01-29T12:43:48.922Z,87.22
2019-01-29T12:46:19.424Z,87.00
2019-01-29T12:48:49.883Z,86.40
2019-01-29T12:51:28.593Z,86.06
2019-01-29T12:53:59.071Z,85.68
2019-01-29T12:56:29.539Z,85.66
2019-01-29T12:59:00.200Z,86.16
2019-01-29T13:01:30.789Z,86.38
2019-01-29T13:04:01.377Z,85.52
2019-01-29T13:06:31.933Z,84.74
2019-01-29T13:09:02.773Z,84.67
2019-01-29T13:11:33.227Z,84.34
2019-01-29T13:14:03.891Z,83.47
2019-01-29T13:16:34.440Z,84.79
2019-01-29T13:19:04.958Z,84.48
2019-01-29T13:21:35.447Z,84.12
2019-01-29T13:24:08.441Z,83.90
2019-01-29T13:26:38.957Z,84.42
2019-01-29T13:29:09.556Z,85.06
2019-01-29T13:31:40.038Z,84.54
2019-01-29T13:34:10.923Z,85.18
2019-01-29T13:36:41.426Z,84.93
2019-01-29T13:39:11.931Z,84.86
2019-01-29T13:41:42.409Z,83.80
2019-01-29T13:44:12.975Z,84.25
2019-01-29T13:46:43.472Z,84.36
2019-01-29T13:49:14.003Z,84.41
2019-01-29T13:51:44.540Z,84.06
2019-01-29T13:54:15.860Z,84.45
2019-01-29T13:56:46.327Z,84.75
2019-01-29T13:59:16.820Z,85.17
2019-01-29T14:01:47.304Z,85.66
2019-01-29T14:04:17.798Z,86.00
2019-01-29T14:06:48.365Z,85.81
2019-01-29T14:09:18.890Z,86.28
2019-01-29T14:11:49.388Z,85.96
2019-01-29T14:14:19.916Z,85.77
2019-01-29T14:16:50.390Z,85.95
2019-01-29T14:19:20.883Z,86.17
2019-01-29T14:21:51.444Z,85.88
2019-01-29T14:24:21.896Z,85.98
2019-01-29T14:26:52.391Z,86.28
2019-01-29T14:29:22.931Z,86.36
2019-01-29T14:31:53.400Z,85.68
2019-01-29T14:34:23.902Z,85.71
2019-01-29T14:36:54.416Z,85.92
2019-01-29T14:39:30.392Z,85.95
2019-01-29T14:42:00.915Z,85.74
2019-01-29T14:44:46.942Z,85.85
2019-01-29T14:47:17.466Z,86.26
2019-01-29T14:49:47.963Z,86.35
2019-01-29T14:52:18.444Z,86.72
2019-01-29T14:54:49.055Z,86.73
2019-01-29T14:57:19.597Z,87.07
2019-01-29T14:59:50.116Z,86.42
2019-01-29T15:02:20.666Z,86.54
2019-01-29T15:04:51.180Z,86.77
2019-01-29T15:07:29.890Z,86.89
2019-01-29T15:09:53.833Z,86.61
2019-01-29T15:12:24.491Z,86.73
2019-01-29T15:14:54.985Z,87.09
2019-01-29T15:17:39.660Z,87.20
2019-01-29T15:20:11.918Z,87.67
2019-01-29T15:22:42.452Z,87.60
2019-01-29T15:25:13.292Z,87.56
2019-01-29T15:27:43.780Z,87.27
2019-01-29T15:30:20.342Z,87.54
2019-01-29T15:32:50.838Z,87.58
2019-01-29T15:35:21.322Z,87.81
2019-01-29T15:37:51.915Z,88.01
2019-01-29T15:40:22.397Z,87.74
2019-01-29T16:37:51.970Z,89.68
2019-01-29T16:40:23.257Z,89.63
2019-01-29T16:42:53.923Z,89.58
2019-01-29T16:45:29.115Z,89.46
2019-01-29T16:48:01.534Z,89.70
2019-01-29T16:50:32.144Z,89.38
2019-01-29T16:53:02.947Z,89.64
2019-01-29T16:55:33.639Z,89.74
2019-01-29T16:58:05.050Z,89.92
2019-01-29T17:00:36.099Z,89.98
2019-01-29T17:03:07.272Z,89.97
2019-01-29T17:05:38.116Z,89.87
2019-01-29T17:08:08.858Z,89.99
2019-01-29T17:10:39.705Z,89.98
2019-01-29T17:13:10.461Z,89.73
2019-01-29T17:15:41.134Z,89.75
2019-01-29T17:18:11.940Z,90.00
2019-01-29T17:20:42.788Z,89.88
2019-01-29T17:23:13.676Z,89.81
2019-01-29T17:25:46.677Z,90.21
2019-01-29T17:28:17.413Z,90.46
2019-01-29T17:30:48.067Z,90.49
2019-01-29T17:33:19.103Z,90.74
2019-01-29T17:35:49.766Z,90.77
2019-01-29T17:38:44.524Z,91.13
2019-01-29T17:41:09.953Z,90.77
2019-01-29T17:43:40.924Z,90.84
2019-01-29T17:46:12.001Z,90.98
2019-01-29T17:48:42.708Z,91.05
2019-01-29T17:51:13.635Z,90.82
2019-01-29T17:53:44.223Z,91.21
2019-01-29T17:56:14.915Z,91.37
2019-01-29T17:58:45.569Z,91.62
2019-01-29T18:01:16.244Z,91.71
2019-01-29T18:03:47.171Z,91.95
2019-01-29T18:06:17.798Z,92.17
2019-01-29T18:08:49.821Z,92.05
2019-01-29T18:11:20.773Z,91.95
2019-01-29T18:13:51.493Z,91.99
2019-01-29T18:16:22.104Z,92.23
2019-01-29T18:18:52.731Z,92.24
2019-01-29T18:21:23.411Z,92.23
2019-01-29T18:23:54.025Z,92.16
2019-01-29T18:26:24.571Z,92.14
2019-01-29T18:28:55.204Z,92.27
2019-01-29T18:31:25.738Z,92.08
2019-01-29T18:33:56.572Z,92.14
2019-01-29T18:36:27.150Z,92.12
2019-01-29T18:38:58.053Z,91.67
2019-01-29T18:41:28.672Z,91.52
2019-01-29T18:43:59.539Z,91.69
2019-01-29T18:46:30.167Z,91.74
2019-01-29T18:49:00.896Z,91.79
2019-01-29T18:51:31.535Z,91.97
2019-01-29T18:54:02.245Z,91.87
2019-01-29T18:56:33.802Z,91.74
2019-01-29T18:59:04.899Z,91.67
2019-01-29T19:01:35.771Z,91.65
2019-01-29T19:04:06.465Z,91.88
2019-01-29T19:06:37.283Z,92.00
2019-01-29T19:09:09.324Z,92.17
2019-01-29T19:11:39.943Z,92.44
2019-01-29T19:14:10.749Z,92.41
2019-01-29T19:16:41.391Z,92.59
2019-01-29T19:19:12.006Z,92.69
2019-01-29T19:21:42.622Z,93.08
2019-01-29T19:24:13.597Z,93.14
2019-01-29T19:26:44.558Z,93.28
2019-01-29T19:29:15.295Z,93.62
2019-01-29T19:31:45.975Z,93.67
2019-01-29T19:34:16.697Z,93.71
2019-01-29T19:36:47.346Z,93.79
2019-01-29T19:39:42.888Z,93.74
2019-01-29T19:42:33.514Z,93.82
2019-01-29T19:45:11.046Z,93.80
2019-01-29T19:47:42.929Z,93.69
2019-01-29T19:50:38.709Z,93.73
2019-01-29T19:53:09.748Z,93.92
2019-01-29T19:55:42.361Z,93.77
2019-01-29T19:58:19.194Z,93.74
2019-01-29T20:00:51.657Z,93.86
2019-01-29T20:31:32.780Z,94.21
2019-01-29T20:34:04.247Z,94.44
2019-01-29T20:36:42.619Z,94.77
2019-01-29T20:44:35.600Z,94.98
2019-01-29T20:47:10.409Z,94.86
2019-01-29T20:49:56.971Z,94.87
2019-01-29T20:52:29.054Z,94.91
2019-01-29T20:55:04.765Z,95.03
2019-01-29T20:57:35.658Z,94.95
2019-01-29T21:00:19.923Z,94.79
2019-01-29T21:02:55.353Z,94.81
2019-01-29T21:05:26.450Z,94.84
2019-01-29T21:08:01.824Z,94.90
2019-01-29T21:10:33.967Z,95.01
2019-01-29T21:13:27.229Z,95.13
2019-01-29T21:16:54.999Z,95.26
2019-01-29T21:19:28.472Z,95.06
2019-01-29T21:43:33.023Z,95.47
2019-01-29T21:46:03.523Z,95.48
2019-01-29T21:48:33.930Z,95.54
2019-01-29T21:51:04.555Z,95.50
2019-01-29T21:53:35.028Z,95.53
2019-01-29T21:56:05.513Z,95.55
2019-01-29T21:58:36.036Z,95.22
2019-01-29T22:01:06.616Z,95.18
2019-01-29T22:03:37.141Z,95.42
2019-01-29T22:06:07.884Z,95.40
2019-01-29T22:08:38.360Z,95.42
2019-01-29T22:11:08.886Z,95.48
2019-01-29T22:13:39.387Z,95.40
2019-01-29T22:16:09.915Z,95.29
2019-01-29T22:18:40.416Z,95.31
2019-01-29T22:21:10.973Z,95.44
2019-01-29T22:23:41.454Z,95.65
2019-01-29T22:26:11.954Z,95.73
2019-01-29T22:28:42.451Z,95.89
2019-01-29T22:31:12.922Z,96.05
2019-01-29T22:33:43.344Z,96.02
2019-01-29T22:36:13.852Z,95.97
2019-01-29T22:38:44.388Z,95.91
2019-01-29T22:41:14.842Z,95.99
2019-01-29T22:43:45.410Z,95.87
2019-01-29T22:46:15.879Z,96.03
2019-01-29T22:48:46.356Z,95.98
2019-01-29T22:51:16.895Z,95.82
2019-01-29T22:53:47.413Z,95.80
2019-01-29T22:56:17.903Z,95.84
2019-01-29T22:58:48.407Z,95.81
2019-01-29T23:01:35.048Z,95.73
2019-01-29T23:04:30.291Z,95.60
2019-01-29T23:07:14.537Z,95.50
2019-01-29T23:09:45.042Z,95.50
2019-01-29T23:12:15.534Z,95.57
2019-01-29T23:14:46.018Z,95.70
2019-01-29T23:17:16.547Z,95.94
2019-01-29T23:19:47.033Z,95.92
2019-01-29T23:22:17.552Z,95.83
2019-01-29T23:24:48.024Z,95.83
2019-01-29T23:27:18.492Z,95.88
2019-01-29T23:29:48.889Z,95.92
2019-01-29T23:32:19.425Z,96.09
2019-01-29T23:34:49.900Z,96.15
2019-01-29T23:37:20.359Z,96.29
2019-01-29T23:39:50.890Z,96.37
2019-01-29T23:42:21.378Z,96.29
2019-01-29T23:44:51.894Z,96.29
2019-01-29T23:47:22.410Z,96.33
2019-01-29T23:49:52.895Z,96.36
2019-01-29T23:52:23.400Z,96.41
2019-01-29T23:54:53.828Z,96.45
2019-01-29T23:57:24.311Z,96.44
2019-01-29T23:59:54.803Z,96.42
